Time;durP1;ratioP1;P1;durP2;ratioP2;P2;SDS_P1;SDS_P2;PMS_P1;PMS_P2;Temp;Humidity;BMP_temperature;BMP_pressure;BME280_temperature;BME280_humidity;BME280_pressure;Samples;Min_cycle;Max_cycle;Signal;HPM_P1;HPM_P2
2023/09/19 00:00:48;;;;;;;9.77;1.88;;;19.60;76.00;;;;;;10535380;28;20055;-39
2023/09/19 00:05:50;;;;;;;7.40;1.35;;;20.30;72.60;;;;;;10537240;28;20157;-35
2023/09/19 00:10:55;;;;;;;4.68;1.50;;;20.30;71.90;;;;;;10534662;28;20127;-41
2023/09/19 00:15:58;;;;;;;10.07;1.67;;;20.10;83.80;;;;;;10537624;28;20085;-31
2023/09/19 00:21:01;;;;;;;10.10;1.98;;;19.80;72.70;;;;;;10533243;28;20052;-32
2023/09/19 00:26:04;;;;;;;12.65;1.60;;;19.80;75.70;;;;;;10526482;28;20465;-32
2023/09/19 00:31:09;;;;;;;8.05;1.80;;;19.40;74.60;;;;;;10531822;28;20131;-38
2023/09/19 00:36:11;;;;;;;3.72;1.23;;;20.30;82.60;;;;;;10517124;28;20408;-37
2023/09/19 00:41:15;;;;;;;7.13;1.80;;;19.70;81.90;;;;;;10527579;28;20477;-37
2023/09/19 00:46:17;;;;;;;9.20;2.00;;;20.00;80.10;;;;;;10538853;28;20051;-31
2023/09/19 00:51:21;;;;;;;;;;;19.60;73.70;;;;;;10528254;28;20060;-34
2023/09/19 00:56:24;;;;;;;6.50;1.40;;;20.20;78.40;;;;;;10529727;28;20021;-32
2023/09/19 01:01:26;;;;;;;10.13;1.58;;;20.50;74.30;;;;;;10532936;28;20080;-34
2023/09/19 01:06:28;;;;;;;6.53;1.40;;;20.30;79.30;;;;;;10523692;28;20043;-32
2023/09/19 01:11:39;;;;;;;13.02;1.90;;;19.60;80.10;;;;;;10520221;28;20048;-33
2023/09/19 01:16:50;;;;;;;10.43;2.53;;;19.30;87.60;;;;;;10517754;28;20051;-31
2023/09/19 01:22:02;;;;;;;11.05;2.58;;;19.70;83.60;;;;;;10537091;28;20047;-37
2023/09/19 01:27:28;;;;;;;6.78;1.95;;;19.50;84.70;;;;;;10518320;28;20047;-33
2023/09/19 01:32:32;;;;;;;14.90;2.00;;;19.80;84.70;;;;;;10527642;28;20131;-32
2023/09/19 01:37:34;;;;;;;11.93;2.45;;;19.90;76.40;;;;;;10537194;28;20054;-35
2023/09/19 01:42:42;;;;;;;8.05;2.38;;;19.40;76.10;;;;;;10525421;28;20126;-31
2023/09/19 01:47:51;;;;;;;10.32;1.65;;;19.10;83.20;;;;;;10545101;28;20090;-32
2023/09/19 01:53:00;;;;;;;9.23;2.25;;;20.00;74.60;;;;;;10537232;28;20610;-35
2023/09/19 01:58:08;;;;;;;5.82;1.35;;;19.00;84.30;;;;;;10515286;28;20056;-37
2023/09/19 02:03:13;;;;;;;4.82;1.23;;;20.10;79.00;;;;;;10530282;28;20497;-31
2023/09/19 02:08:18;;;;;;;5.80;1.50;;;20.00;78.80;;;;;;10509115;28;20500;-31
2023/09/19 02:13:27;;;;;;;6.03;1.60;;;20.10;76.90;;;;;;10523844;28;20067;-29
2023/09/19 02:18:31;;;;;;;8.55;1.42;;;20.00;79.10;;;;;;10504335;28;20495;-34
2023/09/19 02:23:34;;;;;;;8.68;1.73;;;19.50;75.60;;;;;;10513394;28;20043;-31
2023/09/19 02:28:35;;;;;;;8.80;1.70;;;19.80;79.90;;;;;;10530990;28;20052;-31
2023/09/19 02:33:39;;;;;;;6.00;1.30;;;19.80;80.30;;;;;;10513646;28;20056;-34
2023/09/19 02:38:40;;;;;;;7.55;1.50;;;19.40;76.60;;;;;;10525571;28;20079;-38
2023/09/19 02:43:43;;;;;;;6.93;2.05;;;19.30;83.20;;;;;;10521654;28;20098;-34
2023/09/19 02:48:47;;;;;;;6.78;1.55;;;19.30;80.20;;;;;;10528112;28;20056;-30
2023/09/19 02:53:49;;;;;;;5.72;1.48;;;19.80;82.20;;;;;;10522445;28;20127;-34
2023/09/19 03:15:31;;;;;;;11.52;1.80;;;19.40;81.60;;;;;;10510145;27;20111;-35
2023/09/19 03:20:33;;;;;;;6.93;1.10;;;19.00;84.80;;;;;;10521722;28;20075;-34
2023/09/19 03:25:35;;;;;;;9.23;1.92;;;19.30;85.60;;;;;;10512574;28;20097;-34
2023/09/19 03:30:39;;;;;;;7.03;1.83;;;19.10;81.60;;;;;;10508898;28;20255;-31
2023/09/19 03:35:41;;;;;;;8.70;1.80;;;19.00;86.00;;;;;;10520847;28;20499;-34
2023/09/19 03:40:45;;;;;;;13.88;1.63;;;19.10;86.20;;;;;;10508504;28;20056;-36
2023/09/19 03:45:48;;;;;;;6.55;1.30;;;19.30;86.40;;;;;;10519013;28;20135;-31
2023/09/19 03:50:51;;;;;;;13.40;2.05;;;20.10;81.70;;;;;;10528321;28;20097;-36
2023/09/19 03:55:52;;;;;;;;;;;20.00;75.20;;;;;;10524780;28;20055;-33
2023/09/19 04:00:57;;;;;;;9.80;1.15;;;19.80;76.10;;;;;;10521889;28;19946;-36
2023/09/19 04:05:59;;;;;;;3.65;0.88;;;19.80;74.20;;;;;;10528499;28;20064;-33
2023/09/19 04:11:01;;;;;;;9.38;1.20;;;20.30;75.70;;;;;;10521569;28;20155;-33
2023/09/19 04:16:06;;;;;;;;;;;19.60;78.40;;;;;;10518272;28;20794;-40
2023/09/19 04:21:08;;;;;;;9.63;1.35;;;19.20;76.70;;;;;;10501340;28;19920;-37
2023/09/19 04:26:11;;;;;;;6.05;1.10;;;20.10;73.00;;;;;;10490701;28;20048;-31
2023/09/19 04:31:14;;;;;;;15.93;2.45;;;19.60;75.80;;;;;;10492567;28;20048;-34
2023/09/19 04:36:16;;;;;;;6.32;1.73;;;19.50;74.40;;;;;;10493612;28;20086;-32
2023/09/19 04:41:18;;;;;;;10.02;1.52;;;20.30;74.20;;;;;;10487465;28;20151;-33
2023/09/19 04:46:21;;;;;;;7.40;1.50;;;19.30;75.80;;;;;;10483281;28;20131;-33
2023/09/19 04:51:23;;;;;;;17.45;1.70;;;19.30;78.90;;;;;;10495229;28;20054;-37
2023/09/19 04:56:25;;;;;;;13.80;1.88;;;20.00;75.30;;;;;;10506214;28;20043;-35
2023/09/19 05:01:28;;;;;;;5.78;1.45;;;19.70;75.40;;;;;;10494394;28;20087;-32
2023/09/19 05:06:30;;;;;;;9.55;1.55;;;19.50;81.70;;;;;;10478480;28;20068;-32
2023/09/19 05:11:33;;;;;;;15.80;1.83;;;18.90;82.50;;;;;;10492619;28;20088;-34
2023/09/19 05:16:37;;;;;;;11.90;2.15;;;19.60;79.10;;;;;;10488035;28;20056;-31
2023/09/19 05:21:39;;;;;;;11.60;2.03;;;19.20;80.30;;;;;;10501484;28;20036;-31
2023/09/19 05:26:40;;;;;;;7.05;1.50;;;19.00;81.10;;;;;;10495966;28;20041;-34
2023/09/19 05:31:44;;;;;;;12.45;3.08;;;19.10;85.20;;;;;;10490790;28;20092;-32
2023/09/19 05:36:45;;;;;;;5.95;1.98;;;18.90;85.10;;;;;;10478775;28;20136;-37
2023/09/19 05:41:48;;;;;;;11.52;1.85;;;19.20;83.10;;;;;;10484916;28;20155;-35
2023/09/19 05:46:51;;;;;;;6.32;1.55;;;18.90;85.80;;;;;;10477950;28;20072;-38
2023/09/19 05:51:55;;;;;;;14.65;2.05;;;19.10;84.90;;;;;;10472148;28;20184;-32
2023/09/19 05:56:57;;;;;;;10.02;2.17;;;18.80;84.90;;;;;;10478201;28;20045;-35
2023/09/19 06:02:01;;;;;;;7.32;1.55;;;18.60;89.40;;;;;;10486984;28;20052;-39
2023/09/19 06:07:03;;;;;;;17.58;2.72;;;19.60;81.40;;;;;;10480958;28;20101;-37
2023/09/19 06:12:06;;;;;;;15.57;2.70;;;18.40;83.20;;;;;;10480578;28;20056;-33
2023/09/19 06:17:10;;;;;;;16.98;2.60;;;19.00;83.80;;;;;;10488877;28;20492;-37
2023/09/19 06:22:12;;;;;;;12.32;2.58;;;18.50;86.50;;;;;;10464591;28;20054;-34
2023/09/19 06:27:14;;;;;;;15.00;3.55;;;19.70;79.40;;;;;;10490792;28;20696;-32
2023/09/19 06:32:17;;;;;;;17.13;2.08;;;19.40;78.00;;;;;;10468061;28;20059;-32
2023/09/19 06:37:19;;;;;;;15.88;2.97;;;19.10;79.70;;;;;;10489550;28;20075;-35
2023/09/19 06:42:22;;;;;;;9.93;2.17;;;18.30;87.50;;;;;;10491294;28;20036;-35
2023/09/19 06:47:25;;;;;;;19.67;2.42;;;18.70;85.90;;;;;;10481915;28;20044;-41
2023/09/19 06:52:27;;;;;;;16.92;4.50;;;18.30;88.00;;;;;;10491432;28;20456;-38
2023/09/19 06:57:30;;;;;;;11.05;2.15;;;18.60;74.80;;;;;;10491680;28;20079;-33
2023/09/19 07:02:33;;;;;;;15.45;2.78;;;18.60;78.90;;;;;;10494703;28;20059;-39
2023/09/19 07:07:35;;;;;;;8.27;1.77;;;19.30;78.90;;;;;;10487699;28;20089;-34
2023/09/19 07:12:37;;;;;;;16.42;2.22;;;19.70;83.00;;;;;;10495305;28;20170;-32
2023/09/19 07:17:40;;;;;;;11.18;2.13;;;19.80;83.10;;;;;;10480923;28;20687;-31
2023/09/19 07:22:42;;;;;;;9.73;2.08;;;19.30;87.90;;;;;;10490230;28;20083;-35
2023/09/19 07:27:45;;;;;;;11.05;2.13;;;19.70;87.20;;;;;;10492173;28;20067;-35
2023/09/19 07:32:49;;;;;;;6.32;1.67;;;19.70;85.80;;;;;;10484808;28;20405;-38
2023/09/19 07:37:51;;;;;;;12.20;2.70;;;19.70;87.90;;;;;;10484787;28;20144;-32
2023/09/19 07:42:53;;;;;;;;;;;19.30;92.50;;;;;;10477779;28;20048;-38
2023/09/19 07:47:57;;;;;;;14.43;2.38;;;19.10;91.20;;;;;;10476461;28;19924;-41
2023/09/19 07:52:59;;;;;;;16.10;2.33;;;19.90;87.50;;;;;;10480922;28;20049;-33
2023/09/19 07:58:03;;;;;;;6.38;1.55;;;19.70;91.20;;;;;;10487750;28;20046;-35
2023/09/19 08:03:08;;;;;;;8.35;1.63;;;20.90;78.10;;;;;;10488447;28;20137;-40
2023/09/19 08:08:10;;;;;;;10.45;2.40;;;20.70;86.80;;;;;;10478043;28;20124;-32
2023/09/19 08:13:14;;;;;;;7.93;1.60;;;19.80;90.60;;;;;;10500832;28;20059;-34
2023/09/19 08:18:18;;;;;;;8.95;1.70;;;19.80;90.00;;;;;;10488648;28;20049;-31
2023/09/19 08:23:21;;;;;;;15.63;2.25;;;20.50;84.80;;;;;;10492308;28;20040;-35
2023/09/19 08:28:24;;;;;;;12.52;2.28;;;19.00;92.40;;;;;;10510368;28;20044;-37
2023/09/19 08:33:27;;;;;;;19.95;2.35;;;18.50;95.30;;;;;;10490947;28;20053;-35
2023/09/19 08:38:29;;;;;;;9.27;2.08;;;18.70;96.80;;;;;;10490875;28;20538;-33
2023/09/19 08:43:34;;;;;;;;;;;19.00;95.00;;;;;;10497225;28;20040;-38
2023/09/19 08:48:41;;;;;;;19.20;2.83;;;19.90;90.40;;;;;;10496306;28;20338;-32
2023/09/19 08:53:51;;;;;;;6.18;1.52;;;19.30;92.10;;;;;;10489608;28;20164;-32
2023/09/19 08:58:57;;;;;;;19.20;2.50;;;21.00;81.60;;;;;;10489567;28;20538;-31
2023/09/19 09:04:01;;;;;;;12.60;2.10;;;19.90;91.10;;;;;;10492848;28;20056;-33
2023/09/19 09:09:04;;;;;;;12.07;2.22;;;19.80;91.60;;;;;;10489936;28;20086;-36
2023/09/19 09:14:08;;;;;;;10.23;1.95;;;20.70;90.00;;;;;;10476004;28;20063;-32
2023/09/19 09:19:13;;;;;;;11.52;1.95;;;19.60;92.40;;;;;;10488686;28;20053;-29
2023/09/19 09:24:28;;;;;;;7.85;1.27;;;19.30;94.20;;;;;;10497239;28;20048;-29
2023/09/19 09:29:44;;;;;;;12.43;2.10;;;20.50;89.50;;;;;;10486328;28;20052;-33
2023/09/19 09:34:49;;;;;;;11.48;2.38;;;19.90;92.60;;;;;;10508928;28;20490;-32
2023/09/19 09:39:56;;;;;;;12.32;1.85;;;20.40;85.80;;;;;;10480474;28;20128;-37
2023/09/19 09:45:13;;;;;;;18.52;3.33;;;20.00;90.40;;;;;;10497347;28;20040;-38
2023/09/19 09:50:29;;;;;;;8.88;2.17;;;20.20;90.40;;;;;;10507872;28;20052;-34
2023/09/19 09:55:42;;;;;;;12.70;2.20;;;19.50;94.00;;;;;;10480285;28;20045;-39
2023/09/19 10:00:57;;;;;;;13.60;2.10;;;19.20;95.60;;;;;;10492971;28;20055;-34
2023/09/19 10:06:11;;;;;;;7.75;1.55;;;19.00;95.90;;;;;;10487589;28;20044;-31
2023/09/19 10:11:19;;;;;;;8.75;1.90;;;20.10;92.90;;;;;;10476991;28;20656;-35
2023/09/19 10:16:22;;;;;;;12.43;2.28;;;21.00;87.80;;;;;;10492463;28;20048;-33
2023/09/19 10:21:29;;;;;;;11.70;1.75;;;19.80;94.40;;;;;;10489868;28;20051;-35
2023/09/19 10:26:33;;;;;;;6.45;1.45;;;19.50;95.50;;;;;;10484768;28;20040;-36
2023/09/19 10:31:39;;;;;;;11.35;1.65;;;20.00;93.70;;;;;;10488624;28;20970;-36
2023/09/19 10:36:46;;;;;;;5.25;1.83;;;19.90;94.10;;;;;;10479066;28;20493;-41
2023/09/19 10:41:53;;;;;;;11.20;1.85;;;19.70;95.10;;;;;;10474943;28;20049;-36
2023/09/19 10:46:56;;;;;;;7.70;1.90;;;20.20;92.40;;;;;;10471781;28;20044;-35
2023/09/19 10:52:01;;;;;;;10.27;1.92;;;20.70;92.40;;;;;;10470735;28;20123;-34
2023/09/19 10:57:09;;;;;;;11.38;1.38;;;20.30;92.70;;;;;;10493692;28;20071;-39
2023/09/19 11:02:18;;;;;;;7.13;1.45;;;19.70;95.50;;;;;;10478897;28;20132;-35
2023/09/19 11:07:21;;;;;;;12.73;1.45;;;20.00;93.50;;;;;;10479205;28;20062;-34
2023/09/19 11:12:51;;;;;;;4.10;1.10;;;20.20;94.10;;;;;;10495113;28;20159;-31
2023/09/19 11:17:54;;;;;;;4.43;1.15;;;19.90;94.60;;;;;;10472556;28;20137;-34
2023/09/19 11:23:13;;;;;;;;;;;19.60;95.90;;;;;;10488761;28;20059;-37
2023/09/19 11:28:38;;;;;;;8.77;1.45;;;20.10;93.20;;;;;;10487723;28;20394;-31
2023/09/19 11:33:46;;;;;;;8.52;1.40;;;20.10;93.70;;;;;;10478879;28;20099;-30
2023/09/19 11:39:08;;;;;;;5.63;1.23;;;20.30;94.40;;;;;;10497040;28;20456;-27
2023/09/19 11:44:38;;;;;;;5.90;1.58;;;19.90;96.60;;;;;;10493374;28;20059;-40
2023/09/19 11:49:42;;;;;;;4.43;0.90;;;20.20;93.70;;;;;;10501606;28;20048;-31
2023/09/19 11:54:47;;;;;;;8.52;1.30;;;20.40;94.20;;;;;;10495485;28;20049;-33
2023/09/19 11:59:53;;;;;;;6.57;1.25;;;19.80;96.50;;;;;;10499901;28;20052;-38
2023/09/19 12:04:55;;;;;;;3.78;1.08;;;20.40;95.60;;;;;;10484871;28;20386;-36
2023/09/19 12:10:05;;;;;;;6.03;1.67;;;20.60;94.10;;;;;;10491131;28;20110;-31
2023/09/19 12:15:10;;;;;;;8.88;1.55;;;20.70;94.30;;;;;;10485327;28;20062;-30
2023/09/19 12:20:14;;;;;;;4.72;1.00;;;20.50;94.10;;;;;;10482519;28;20041;-36
2023/09/19 12:25:17;;;;;;;4.05;1.00;;;20.90;92.10;;;;;;10488791;28;20102;-29
2023/09/19 12:30:27;;;;;;;5.82;1.27;;;21.10;91.00;;;;;;10471599;28;20079;-33
2023/09/19 12:35:30;;;;;;;8.90;1.88;;;20.40;94.50;;;;;;10485458;28;20466;-39
2023/09/19 12:40:35;;;;;;;8.35;1.48;;;20.90;92.50;;;;;;10483200;28;20045;-34
2023/09/19 12:45:39;;;;;;;5.93;1.65;;;20.30;95.80;;;;;;10500174;28;20047;-35
2023/09/19 12:51:05;;;;;;;6.13;1.10;;;19.90;96.60;;;;;;10496509;28;20072;-32
2023/09/19 12:56:09;;;;;;;9.32;1.73;;;20.50;95.70;;;;;;10496132;28;20695;-33
2023/09/19 13:01:17;;;;;;;7.40;1.33;;;20.00;98.90;;;;;;10486892;28;20056;-40
2023/09/19 13:06:40;;;;;;;11.98;2.05;;;19.90;99.30;;;;;;10506968;28;20089;-34
2023/09/19 13:11:44;;;;;;;10.52;2.28;;;19.60;99.00;;;;;;10487174;28;20529;-34
2023/09/19 13:17:05;;;;;;;12.68;2.60;;;20.10;97.10;;;;;;10482252;28;20063;-31
2023/09/19 13:22:39;;;;;;;5.67;1.57;;;19.90;97.20;;;;;;10483845;28;20041;-31
2023/09/19 13:27:41;;;;;;;18.50;3.10;;;19.80;97.50;;;;;;10490093;28;20057;-33
2023/09/19 13:32:47;;;;;;;8.90;1.58;;;19.00;99.90;;;;;;10477350;28;20056;-31
2023/09/19 13:37:51;;;;;;;15.35;2.80;;;19.40;99.90;;;;;;10498880;28;20056;-36
2023/09/19 13:42:53;;;;;;;18.23;3.28;;;19.20;99.90;;;;;;10483420;28;20052;-33
2023/09/19 13:47:57;;;;;;;21.30;3.25;;;19.00;99.90;;;;;;10502811;28;20059;-40
2023/09/19 13:53:00;;;;;;;11.30;1.90;;;18.70;99.90;;;;;;10490940;28;20076;-44
2023/09/19 13:58:02;;;;;;;15.07;2.95;;;18.90;99.90;;;;;;10484073;28;20044;-42
2023/09/19 14:03:05;;;;;;;12.00;2.22;;;18.90;99.90;;;;;;10483590;28;20079;-39
2023/09/19 14:08:08;;;;;;;11.23;1.85;;;19.30;99.90;;;;;;10471542;28;20111;-38
2023/09/19 14:13:09;;;;;;;;;;;19.30;99.90;;;;;;10488020;28;20524;-35
2023/09/19 14:18:13;;;;;;;11.88;2.40;;;19.40;99.90;;;;;;10481839;28;19928;-31
2023/09/19 14:23:15;;;;;;;19.40;2.85;;;19.20;99.90;;;;;;10491328;28;20137;-34
2023/09/19 14:28:16;;;;;;;11.90;2.42;;;19.20;99.90;;;;;;10494700;28;20093;-38
2023/09/19 14:33:20;;;;;;;11.68;2.15;;;19.50;99.90;;;;;;10490601;28;20139;-31
2023/09/19 14:38:22;;;;;;;18.60;4.18;;;18.90;99.90;;;;;;10487471;28;20052;-31
2023/09/19 14:43:24;;;;;;;16.23;4.10;;;18.10;99.90;;;;;;10495169;28;20141;-35
2023/09/19 14:48:27;;;;;;;15.75;2.88;;;18.20;99.90;;;;;;10472550;28;20459;-32
2023/09/19 14:53:29;;;;;;;13.82;2.92;;;18.00;99.90;;;;;;10494694;28;20052;-31
2023/09/19 14:58:31;;;;;;;13.82;2.38;;;17.90;99.90;;;;;;10480196;28;20052;-39
2023/09/19 15:03:35;;;;;;;13.82;2.97;;;18.70;99.90;;;;;;10488905;28;20123;-40
2023/09/19 15:08:39;;;;;;;9.73;2.50;;;18.30;99.90;;;;;;10484267;28;20036;-30
2023/09/19 15:13:42;;;;;;;22.23;5.72;;;19.40;99.90;;;;;;10484120;28;20502;-34
2023/09/19 15:18:47;;;;;;;19.92;4.72;;;18.10;99.90;;;;;;10480690;28;20135;-29
2023/09/19 15:23:49;;;;;;;19.30;3.90;;;18.10;99.90;;;;;;10472666;28;20075;-41
2023/09/19 15:28:51;;;;;;;20.35;2.75;;;18.30;99.90;;;;;;10480415;28;20147;-32
2023/09/19 15:33:54;;;;;;;21.13;3.58;;;18.50;99.90;;;;;;10481632;28;20149;-32
2023/09/19 15:39:00;;;;;;;15.05;3.20;;;18.30;99.90;;;;;;10484328;28;20135;-34
2023/09/19 15:44:03;;;;;;;22.80;3.97;;;18.30;99.90;;;;;;10480905;28;20407;-34
2023/09/19 15:49:07;;;;;;;9.88;1.90;;;18.60;99.90;;;;;;10478111;28;20052;-31
2023/09/19 15:54:13;;;;;;;15.38;2.50;;;18.90;99.90;;;;;;10489993;28;20143;-35
2023/09/19 15:59:15;;;;;;;12.30;2.67;;;18.60;99.90;;;;;;10488553;28;20095;-29
2023/09/19 16:04:19;;;;;;;11.95;2.47;;;19.10;99.90;;;;;;10479739;28;20040;-30
2023/09/19 16:09:20;;;;;;;16.58;3.40;;;19.40;99.90;;;;;;10484802;28;20040;-31
2023/09/19 16:14:22;;;;;;;17.57;3.10;;;18.40;99.90;;;;;;10483154;28;20186;-36
2023/09/19 16:19:25;;;;;;;11.63;2.57;;;18.50;99.90;;;;;;10481792;28;20132;-34
2023/09/19 16:24:28;;;;;;;15.43;2.72;;;18.80;99.90;;;;;;10491099;28;20079;-33
2023/09/19 16:29:30;;;;;;;14.70;3.05;;;18.10;99.90;;;;;;10495269;28;20102;-34
2023/09/19 16:34:34;;;;;;;11.82;2.58;;;18.50;99.90;;;;;;10477512;28;20140;-35
2023/09/19 16:39:36;;;;;;;13.43;3.00;;;18.70;99.90;;;;;;10503068;28;20123;-31
2023/09/19 16:44:38;;;;;;;14.10;3.15;;;18.20;99.90;;;;;;10511327;28;20382;-32
2023/09/19 16:49:41;;;;;;;7.82;2.67;;;18.30;99.90;;;;;;10485379;28;20574;-33
2023/09/19 16:54:43;;;;;;;11.93;2.78;;;18.50;99.90;;;;;;10486302;28;20156;-33
2023/09/19 16:59:45;;;;;;;14.48;2.65;;;18.20;99.90;;;;;;10489452;28;20075;-32
2023/09/19 17:04:48;;;;;;;16.20;3.35;;;17.80;99.90;;;;;;10483532;28;20143;-35
2023/09/19 17:09:50;;;;;;;12.27;3.00;;;17.70;99.90;;;;;;10489464;28;20113;-36
2023/09/19 17:14:52;;;;;;;13.65;3.95;;;17.60;99.90;;;;;;10488198;28;20109;-37
2023/09/19 17:19:55;;;;;;;10.90;3.22;;;17.80;99.90;;;;;;10487009;28;20502;-35
2023/09/19 17:24:57;;;;;;;11.10;2.83;;;17.60;99.90;;;;;;10486844;28;20558;-29
2023/09/19 17:29:59;;;;;;;17.00;3.10;;;17.70;99.90;;;;;;10500040;28;20124;-37
2023/09/19 17:35:03;;;;;;;17.42;2.80;;;17.40;99.90;;;;;;10488983;28;20069;-35
2023/09/19 17:40:06;;;;;;;19.10;3.60;;;17.60;99.90;;;;;;10489329;28;20059;-33
2023/09/19 17:45:09;;;;;;;13.05;2.95;;;18.30;99.90;;;;;;10489653;28;20148;-36
2023/09/19 17:50:13;;;;;;;11.60;2.30;;;18.20;99.90;;;;;;10488770;28;20413;-33
2023/09/19 17:55:16;;;;;;;6.45;2.45;;;17.90;99.90;;;;;;10482330;28;20107;-32
2023/09/19 18:00:18;;;;;;;9.50;2.10;;;18.50;99.90;;;;;;10487026;28;20055;-37
2023/09/19 18:05:22;;;;;;;7.68;2.30;;;18.00;99.90;;;;;;10489201;28;20106;-31
2023/09/19 18:10:26;;;;;;;15.05;3.63;;;17.50;99.90;;;;;;10486779;28;20107;-38
2023/09/19 18:15:32;;;;;;;9.90;2.65;;;17.70;99.90;;;;;;10484034;28;20126;-36
2023/09/19 18:20:39;;;;;;;12.82;2.75;;;18.00;99.90;;;;;;10477876;28;20162;-35
2023/09/19 18:25:41;;;;;;;9.57;2.85;;;17.70;99.90;;;;;;10490595;28;20126;-33
2023/09/19 18:30:43;;;;;;;8.80;2.63;;;18.10;99.90;;;;;;10485859;28;20076;-32
2023/09/19 18:35:46;;;;;;;7.70;2.47;;;18.00;99.90;;;;;;10484926;28;20546;-33
2023/09/19 18:40:50;;;;;;;15.70;2.72;;;17.70;99.90;;;;;;10485894;28;20139;-34
2023/09/19 18:45:58;;;;;;;9.27;2.25;;;18.30;99.90;;;;;;10485685;28;20048;-33
2023/09/19 18:51:06;;;;;;;10.80;2.70;;;18.10;99.90;;;;;;10492231;28;20052;-34
2023/09/19 18:56:10;;;;;;;10.65;2.92;;;18.50;99.90;;;;;;10490949;28;20050;-31
2023/09/19 19:01:16;;;;;;;9.32;2.75;;;18.00;99.90;;;;;;10490221;28;20067;-35
2023/09/19 19:06:21;;;;;;;7.35;2.58;;;17.90;99.90;;;;;;10490541;28;20602;-37
2023/09/19 19:11:25;;;;;;;7.15;2.28;;;18.00;99.90;;;;;;10484955;28;20511;-35
2023/09/19 19:16:28;;;;;;;11.30;3.00;;;17.90;99.90;;;;;;10477677;28;20517;-38
2023/09/19 19:21:31;;;;;;;7.35;1.95;;;18.50;99.90;;;;;;10473703;28;20041;-34
2023/09/19 19:26:34;;;;;;;12.35;3.03;;;18.40;99.90;;;;;;10473126;28;20063;-33
2023/09/19 19:31:37;;;;;;;12.93;2.65;;;18.30;99.90;;;;;;10481199;28;20041;-33
2023/09/19 19:36:40;;;;;;;10.13;2.65;;;18.40;99.90;;;;;;10496394;28;20420;-37
2023/09/19 19:41:43;;;;;;;8.45;2.40;;;18.80;99.90;;;;;;10486368;28;20053;-32
2023/09/19 19:46:45;;;;;;;7.45;1.92;;;18.50;99.90;;;;;;10482720;28;20048;-35
2023/09/19 19:51:49;;;;;;;7.72;1.83;;;19.20;99.90;;;;;;10480396;28;20044;-33
2023/09/19 19:56:51;;;;;;;7.00;2.40;;;18.90;99.90;;;;;;10486394;28;20070;-35
2023/09/19 20:01:53;;;;;;;9.27;2.20;;;18.60;99.90;;;;;;10501350;28;20867;-35
2023/09/19 20:06:57;;;;;;;8.88;2.25;;;18.40;99.90;;;;;;10497258;28;20068;-36
2023/09/19 20:11:59;;;;;;;11.18;3.03;;;18.70;99.90;;;;;;10492615;28;20094;-40
2023/09/19 20:17:01;;;;;;;13.60;2.80;;;18.60;99.90;;;;;;10490854;28;20080;-35
2023/09/19 20:22:08;;;;;;;8.48;2.88;;;18.40;99.90;;;;;;10500147;28;20036;-37
2023/09/19 20:27:13;;;;;;;13.98;2.42;;;18.40;99.90;;;;;;10499258;28;20086;-30
2023/09/19 20:32:17;;;;;;;14.07;3.58;;;18.40;99.90;;;;;;10492984;28;20126;-36
2023/09/19 20:37:20;;;;;;;17.92;3.33;;;18.50;99.90;;;;;;10498909;28;20502;-39
2023/09/19 20:42:23;;;;;;;5.82;2.03;;;18.70;99.90;;;;;;10491234;28;20465;-34
2023/09/19 20:47:25;;;;;;;;;;;19.30;99.90;;;;;;10491025;28;20060;-38
2023/09/19 20:52:28;;;;;;;12.20;2.90;;;18.70;99.90;;;;;;10464870;28;19924;-33
2023/09/19 20:57:30;;;;;;;8.93;2.83;;;18.70;99.90;;;;;;10448041;28;20205;-34
2023/09/19 21:02:32;;;;;;;5.63;2.35;;;18.70;99.90;;;;;;10482594;28;20455;-38
2023/09/19 21:07:35;;;;;;;10.55;2.78;;;18.50;99.90;;;;;;10490633;28;20061;-38
2023/09/19 21:12:37;;;;;;;11.45;3.10;;;19.30;99.90;;;;;;10489030;28;20113;-37
2023/09/19 21:17:42;;;;;;;7.03;2.63;;;18.70;99.90;;;;;;10487344;28;20149;-30
2023/09/19 21:22:45;;;;;;;11.40;3.00;;;18.30;99.90;;;;;;10489057;28;20067;-39
2023/09/19 21:27:47;;;;;;;11.30;2.38;;;18.40;99.90;;;;;;10485753;28;20460;-35
2023/09/19 21:32:49;;;;;;;12.13;2.78;;;18.30;99.90;;;;;;10481414;28;20068;-37
2023/09/19 21:37:52;;;;;;;15.60;4.32;;;18.60;99.90;;;;;;10482087;28;20080;-36
2023/09/19 21:42:54;;;;;;;15.00;2.83;;;18.40;99.90;;;;;;10477121;28;20081;-37
2023/09/19 21:47:57;;;;;;;12.75;3.10;;;18.60;99.90;;;;;;10463532;28;20052;-36
2023/09/19 21:53:00;;;;;;;;;;;18.60;99.90;;;;;;10486255;28;20048;-34
2023/09/19 21:58:02;;;;;;;11.15;3.35;;;19.10;99.90;;;;;;10483395;28;19932;-37
2023/09/19 22:03:06;;;;;;;;;;;19.00;99.90;;;;;;10475638;28;20072;-35
2023/09/19 22:08:10;;;;;;;14.75;3.40;;;18.80;99.90;;;;;;10486374;28;19979;-33
2023/09/19 22:13:15;;;;;;;12.82;4.05;;;18.70;99.90;;;;;;10480560;28;20136;-38
2023/09/19 22:18:20;;;;;;;13.25;3.20;;;18.80;99.90;;;;;;10485295;28;20080;-38
2023/09/19 22:23:26;;;;;;;11.48;2.88;;;18.90;99.90;;;;;;10495041;28;20032;-36
2023/09/19 22:28:29;;;;;;;16.30;2.85;;;19.30;99.90;;;;;;10498426;28;20053;-36
2023/09/19 22:33:31;;;;;;;;;;;19.30;99.90;;;;;;10495448;28;20040;-34
2023/09/19 22:38:35;;;;;;;8.13;2.63;;;19.40;99.90;;;;;;10488924;28;19931;-35
2023/09/19 22:43:45;;;;;;;16.60;3.08;;;19.00;99.90;;;;;;10483283;28;20043;-32
2023/09/19 22:48:47;;;;;;;11.50;2.40;;;18.90;99.90;;;;;;10492974;28;20063;-34
2023/09/19 22:53:57;;;;;;;7.03;2.50;;;19.60;99.90;;;;;;10494199;28;20056;-33
2023/09/19 22:58:59;;;;;;;7.28;2.75;;;19.90;99.90;;;;;;10491549;28;20493;-33
2023/09/19 23:04:15;;;;;;;10.02;3.33;;;19.10;99.90;;;;;;10488555;28;20474;-36
2023/09/19 23:09:24;;;;;;;6.20;2.40;;;19.20;99.90;;;;;;10501125;28;20084;-35
2023/09/19 23:14:32;;;;;;;13.40;3.08;;;19.50;99.90;;;;;;10480598;28;20056;-34
2023/09/19 23:19:34;;;;;;;16.25;2.80;;;19.00;99.90;;;;;;10487933;28;20052;-31
2023/09/19 23:24:40;;;;;;;18.55;3.63;;;19.30;99.90;;;;;;10503413;28;20055;-35
2023/09/19 23:29:42;;;;;;;15.80;3.15;;;19.50;99.90;;;;;;10485749;28;20081;-37
2023/09/19 23:34:46;;;;;;;22.90;2.72;;;18.80;99.90;;;;;;10482128;28;20515;-35
2023/09/19 23:39:50;;;;;;;9.13;2.30;;;19.00;99.90;;;;;;10480574;28;20412;-34
2023/09/19 23:44:54;;;;;;;5.47;2.03;;;19.00;99.90;;;;;;10486873;28;20132;-35
2023/09/19 23:49:57;;;;;;;9.18;2.15;;;19.10;99.90;;;;;;10480168;28;20400;-34
2023/09/19 23:55:00;;;;;;;7.25;1.88;;;19.00;99.90;;;;;;10496471;28;20137;-32
